sensor_id;sensor_type;location;lat;lon;timestamp;P1;durP1;ratioP1;P2;durP2;ratioP2
50605;SDS011;36557;53.572;10.170;2022-11-24T00:01:53;7.82;;;3.22;;
50605;SDS011;36557;53.572;10.170;2022-11-24T00:04:19;12.80;;;4.15;;
50605;SDS011;36557;53.572;10.170;2022-11-24T00:06:45;6.18;;;3.45;;
50605;SDS011;36557;53.572;10.170;2022-11-24T00:09:10;7.20;;;4.40;;
50605;SDS011;36557;53.572;10.170;2022-11-24T00:11:36;5.15;;;3.05;;
50605;SDS011;36557;53.572;10.170;2022-11-24T00:14:03;7.05;;;3.80;;
50605;SDS011;36557;53.572;10.170;2022-11-24T00:16:33;9.50;;;4.07;;
50605;SDS011;36557;53.572;10.170;2022-11-24T00:19:00;9.25;;;4.38;;
50605;SDS011;36557;53.572;10.170;2022-11-24T00:21:28;11.23;;;4.75;;
50605;SDS011;36557;53.572;10.170;2022-11-24T00:23:55;6.95;;;3.78;;
50605;SDS011;36557;53.572;10.170;2022-11-24T00:26:22;5.07;;;3.35;;
50605;SDS011;36557;53.572;10.170;2022-11-24T00:28:57;9.05;;;3.75;;
50605;SDS011;36557;53.572;10.170;2022-11-24T00:31:25;6.65;;;3.42;;
50605;SDS011;36557;53.572;10.170;2022-11-24T00:34:00;6.80;;;3.20;;
50605;SDS011;36557;53.572;10.170;2022-11-24T00:36:28;8.35;;;3.25;;
50605;SDS011;36557;53.572;10.170;2022-11-24T00:38:59;7.38;;;3.85;;
50605;SDS011;36557;53.572;10.170;2022-11-24T00:41:27;4.80;;;2.97;;
50605;SDS011;36557;53.572;10.170;2022-11-24T00:43:53;6.82;;;2.80;;
50605;SDS011;36557;53.572;10.170;2022-11-24T00:46:19;7.70;;;3.05;;
50605;SDS011;36557;53.572;10.170;2022-11-24T00:48:46;7.40;;;3.35;;
50605;SDS011;36557;53.572;10.170;2022-11-24T00:51:12;6.35;;;3.00;;
50605;SDS011;36557;53.572;10.170;2022-11-24T00:53:39;6.13;;;2.75;;
50605;SDS011;36557;53.572;10.170;2022-11-24T00:56:06;6.75;;;2.90;;
50605;SDS011;36557;53.572;10.170;2022-11-24T00:58:32;7.25;;;3.30;;
50605;SDS011;36557;53.572;10.170;2022-11-24T01:01:05;8.27;;;2.90;;
50605;SDS011;36557;53.572;10.170;2022-11-24T01:03:32;8.52;;;2.97;;
50605;SDS011;36557;53.572;10.170;2022-11-24T01:06:02;5.35;;;2.80;;
50605;SDS011;36557;53.572;10.170;2022-11-24T01:08:34;8.57;;;3.05;;
50605;SDS011;36557;53.572;10.170;2022-11-24T01:11:21;7.75;;;2.85;;
50605;SDS011;36557;53.572;10.170;2022-11-24T01:13:54;7.18;;;2.90;;
50605;SDS011;36557;53.572;10.170;2022-11-24T01:16:29;4.85;;;2.53;;
50605;SDS011;36557;53.572;10.170;2022-11-24T01:18:57;7.10;;;2.70;;
50605;SDS011;36557;53.572;10.170;2022-11-24T01:21:24;8.05;;;2.58;;
50605;SDS011;36557;53.572;10.170;2022-11-24T01:23:49;6.68;;;2.80;;
50605;SDS011;36557;53.572;10.170;2022-11-24T01:26:16;8.57;;;2.72;;
50605;SDS011;36557;53.572;10.170;2022-11-24T01:28:44;8.23;;;2.70;;
50605;SDS011;36557;53.572;10.170;2022-11-24T01:31:10;6.28;;;2.75;;
50605;SDS011;36557;53.572;10.170;2022-11-24T01:33:36;10.15;;;2.70;;
50605;SDS011;36557;53.572;10.170;2022-11-24T01:36:03;7.85;;;2.90;;
50605;SDS011;36557;53.572;10.170;2022-11-24T01:38:29;6.30;;;2.67;;
50605;SDS011;36557;53.572;10.170;2022-11-24T01:40:59;7.97;;;2.80;;
50605;SDS011;36557;53.572;10.170;2022-11-24T01:43:26;6.75;;;3.10;;
50605;SDS011;36557;53.572;10.170;2022-11-24T01:45:51;4.63;;;2.92;;
50605;SDS011;36557;53.572;10.170;2022-11-24T01:48:22;7.43;;;2.65;;
50605;SDS011;36557;53.572;10.170;2022-11-24T01:50:50;7.22;;;3.08;;
50605;SDS011;36557;53.572;10.170;2022-11-24T01:53:20;8.07;;;2.83;;
50605;SDS011;36557;53.572;10.170;2022-11-24T01:55:48;7.43;;;3.20;;
50605;SDS011;36557;53.572;10.170;2022-11-24T01:58:17;8.00;;;3.53;;
50605;SDS011;36557;53.572;10.170;2022-11-24T02:00:46;6.97;;;2.65;;
50605;SDS011;36557;53.572;10.170;2022-11-24T02:03:12;7.85;;;2.65;;
50605;SDS011;36557;53.572;10.170;2022-11-24T02:05:45;6.38;;;2.53;;
50605;SDS011;36557;53.572;10.170;2022-11-24T02:10:46;6.13;;;2.97;;
50605;SDS011;36557;53.572;10.170;2022-11-24T02:13:13;4.13;;;2.05;;
50605;SDS011;36557;53.572;10.170;2022-11-24T02:15:39;9.52;;;3.20;;
50605;SDS011;36557;53.572;10.170;2022-11-24T02:18:05;7.35;;;2.60;;
50605;SDS011;36557;53.572;10.170;2022-11-24T02:20:31;6.40;;;2.63;;
50605;SDS011;36557;53.572;10.170;2022-11-24T02:28:26;5.55;;;2.25;;
50605;SDS011;36557;53.572;10.170;2022-11-24T02:30:57;8.32;;;2.78;;
50605;SDS011;36557;53.572;10.170;2022-11-24T02:33:27;5.90;;;2.75;;
50605;SDS011;36557;53.572;10.170;2022-11-24T02:35:53;4.72;;;2.33;;
50605;SDS011;36557;53.572;10.170;2022-11-24T02:38:27;4.43;;;2.40;;
50605;SDS011;36557;53.572;10.170;2022-11-24T02:40:54;6.18;;;3.20;;
50605;SDS011;36557;53.572;10.170;2022-11-24T02:43:20;7.53;;;2.70;;
50605;SDS011;36557;53.572;10.170;2022-11-24T02:45:47;6.03;;;3.10;;
50605;SDS011;36557;53.572;10.170;2022-11-24T02:48:13;6.28;;;2.80;;
50605;SDS011;36557;53.572;10.170;2022-11-24T02:50:40;6.15;;;2.35;;
50605;SDS011;36557;53.572;10.170;2022-11-24T02:53:06;6.70;;;2.50;;
50605;SDS011;36557;53.572;10.170;2022-11-24T02:55:31;5.95;;;2.35;;
50605;SDS011;36557;53.572;10.170;2022-11-24T02:57:57;6.53;;;2.72;;
50605;SDS011;36557;53.572;10.170;2022-11-24T03:00:23;7.05;;;2.53;;
50605;SDS011;36557;53.572;10.170;2022-11-24T03:02:49;7.13;;;2.78;;
50605;SDS011;36557;53.572;10.170;2022-11-24T03:05:14;6.65;;;2.92;;
50605;SDS011;36557;53.572;10.170;2022-11-24T03:07:40;7.75;;;2.78;;
50605;SDS011;36557;53.572;10.170;2022-11-24T03:10:06;6.75;;;2.67;;
50605;SDS011;36557;53.572;10.170;2022-11-24T03:12:32;7.50;;;2.75;;
50605;SDS011;36557;53.572;10.170;2022-11-24T03:14:58;6.53;;;2.80;;
50605;SDS011;36557;53.572;10.170;2022-11-24T03:17:23;7.53;;;3.00;;
50605;SDS011;36557;53.572;10.170;2022-11-24T03:19:49;3.92;;;2.67;;
50605;SDS011;36557;53.572;10.170;2022-11-24T03:22:16;9.77;;;3.25;;
50605;SDS011;36557;53.572;10.170;2022-11-24T03:24:41;4.90;;;2.50;;
50605;SDS011;36557;53.572;10.170;2022-11-24T03:27:07;9.73;;;3.58;;
50605;SDS011;36557;53.572;10.170;2022-11-24T03:29:33;6.43;;;3.13;;
50605;SDS011;36557;53.572;10.170;2022-11-24T03:31:58;6.70;;;3.00;;
50605;SDS011;36557;53.572;10.170;2022-11-24T03:36:54;4.85;;;2.70;;
50605;SDS011;36557;53.572;10.170;2022-11-24T03:39:20;5.38;;;2.80;;
50605;SDS011;36557;53.572;10.170;2022-11-24T03:41:45;5.97;;;2.80;;
50605;SDS011;36557;53.572;10.170;2022-11-24T03:44:11;7.55;;;3.13;;
50605;SDS011;36557;53.572;10.170;2022-11-24T03:46:37;7.28;;;3.00;;
50605;SDS011;36557;53.572;10.170;2022-11-24T03:49:02;8.02;;;2.72;;
50605;SDS011;36557;53.572;10.170;2022-11-24T03:51:28;7.60;;;2.90;;
50605;SDS011;36557;53.572;10.170;2022-11-24T03:53:54;6.13;;;3.13;;
50605;SDS011;36557;53.572;10.170;2022-11-24T03:56:19;9.15;;;3.40;;
50605;SDS011;36557;53.572;10.170;2022-11-24T03:58:45;5.55;;;2.67;;
50605;SDS011;36557;53.572;10.170;2022-11-24T04:01:11;9.52;;;4.22;;
50605;SDS011;36557;53.572;10.170;2022-11-24T04:03:36;6.40;;;2.70;;
50605;SDS011;36557;53.572;10.170;2022-11-24T04:06:02;6.72;;;2.75;;
50605;SDS011;36557;53.572;10.170;2022-11-24T04:08:28;5.65;;;2.70;;
50605;SDS011;36557;53.572;10.170;2022-11-24T04:10:54;6.00;;;2.88;;
50605;SDS011;36557;53.572;10.170;2022-11-24T04:13:20;6.43;;;2.80;;
50605;SDS011;36557;53.572;10.170;2022-11-24T04:15:47;6.68;;;2.85;;
50605;SDS011;36557;53.572;10.170;2022-11-24T04:18:13;6.60;;;3.05;;
50605;SDS011;36557;53.572;10.170;2022-11-24T04:20:39;6.68;;;2.75;;
50605;SDS011;36557;53.572;10.170;2022-11-24T04:23:06;6.60;;;3.10;;
50605;SDS011;36557;53.572;10.170;2022-11-24T04:25:32;4.90;;;2.70;;
50605;SDS011;36557;53.572;10.170;2022-11-24T04:27:58;6.05;;;2.50;;
50605;SDS011;36557;53.572;10.170;2022-11-24T04:30:26;7.00;;;2.78;;
50605;SDS011;36557;53.572;10.170;2022-11-24T04:32:52;8.20;;;2.92;;
50605;SDS011;36557;53.572;10.170;2022-11-24T04:35:18;5.95;;;2.50;;
50605;SDS011;36557;53.572;10.170;2022-11-24T04:37:44;6.07;;;2.85;;
50605;SDS011;36557;53.572;10.170;2022-11-24T04:40:10;6.65;;;2.58;;
50605;SDS011;36557;53.572;10.170;2022-11-24T04:42:36;6.65;;;2.70;;
50605;SDS011;36557;53.572;10.170;2022-11-24T04:45:03;8.73;;;2.72;;
50605;SDS011;36557;53.572;10.170;2022-11-24T04:47:29;8.52;;;3.28;;
50605;SDS011;36557;53.572;10.170;2022-11-24T04:49:55;4.80;;;2.83;;
50605;SDS011;36557;53.572;10.170;2022-11-24T04:52:22;5.25;;;2.80;;
50605;SDS011;36557;53.572;10.170;2022-11-24T04:54:48;9.07;;;3.00;;
50605;SDS011;36557;53.572;10.170;2022-11-24T04:57:15;6.63;;;2.80;;
50605;SDS011;36557;53.572;10.170;2022-11-24T04:59:42;6.90;;;2.70;;
50605;SDS011;36557;53.572;10.170;2022-11-24T05:02:08;7.03;;;2.88;;
50605;SDS011;36557;53.572;10.170;2022-11-24T05:04:34;7.25;;;3.08;;
50605;SDS011;36557;53.572;10.170;2022-11-24T05:07:00;7.88;;;2.88;;
50605;SDS011;36557;53.572;10.170;2022-11-24T05:09:25;6.20;;;2.78;;
50605;SDS011;36557;53.572;10.170;2022-11-24T05:11:51;5.15;;;2.58;;
50605;SDS011;36557;53.572;10.170;2022-11-24T05:14:17;8.18;;;2.92;;
50605;SDS011;36557;53.572;10.170;2022-11-24T05:16:42;8.65;;;3.00;;
50605;SDS011;36557;53.572;10.170;2022-11-24T05:19:08;8.35;;;2.78;;
50605;SDS011;36557;53.572;10.170;2022-11-24T05:21:34;6.00;;;2.90;;
50605;SDS011;36557;53.572;10.170;2022-11-24T05:23:59;9.32;;;2.55;;
50605;SDS011;36557;53.572;10.170;2022-11-24T05:26:25;9.23;;;2.97;;
50605;SDS011;36557;53.572;10.170;2022-11-24T05:28:51;12.75;;;3.10;;
50605;SDS011;36557;53.572;10.170;2022-11-24T05:31:17;4.85;;;2.25;;
50605;SDS011;36557;53.572;10.170;2022-11-24T05:33:43;8.57;;;2.85;;
50605;SDS011;36557;53.572;10.170;2022-11-24T05:36:09;9.73;;;3.42;;
50605;SDS011;36557;53.572;10.170;2022-11-24T05:38:58;9.27;;;3.38;;
50605;SDS011;36557;53.572;10.170;2022-11-24T05:41:24;8.13;;;2.90;;
50605;SDS011;36557;53.572;10.170;2022-11-24T05:43:50;6.60;;;2.53;;
50605;SDS011;36557;53.572;10.170;2022-11-24T05:46:16;10.07;;;3.10;;
50605;SDS011;36557;53.572;10.170;2022-11-24T05:48:42;9.65;;;3.47;;
50605;SDS011;36557;53.572;10.170;2022-11-24T05:51:07;11.73;;;3.08;;
50605;SDS011;36557;53.572;10.170;2022-11-24T05:53:33;9.43;;;2.97;;
50605;SDS011;36557;53.572;10.170;2022-11-24T05:56:01;8.60;;;3.10;;
50605;SDS011;36557;53.572;10.170;2022-11-24T05:58:28;7.88;;;2.97;;
50605;SDS011;36557;53.572;10.170;2022-11-24T06:00:53;6.70;;;2.75;;
50605;SDS011;36557;53.572;10.170;2022-11-24T06:03:19;7.90;;;3.20;;
50605;SDS011;36557;53.572;10.170;2022-11-24T06:05:45;15.75;;;5.85;;
50605;SDS011;36557;53.572;10.170;2022-11-24T06:08:12;11.02;;;3.70;;
50605;SDS011;36557;53.572;10.170;2022-11-24T06:10:38;13.80;;;4.55;;
50605;SDS011;36557;53.572;10.170;2022-11-24T06:13:04;12.68;;;5.97;;
50605;SDS011;36557;53.572;10.170;2022-11-24T06:15:31;9.40;;;3.47;;
50605;SDS011;36557;53.572;10.170;2022-11-24T06:17:57;10.30;;;4.30;;
50605;SDS011;36557;53.572;10.170;2022-11-24T06:20:23;9.27;;;4.57;;
50605;SDS011;36557;53.572;10.170;2022-11-24T06:22:49;9.55;;;3.72;;
50605;SDS011;36557;53.572;10.170;2022-11-24T06:25:14;10.93;;;3.58;;
50605;SDS011;36557;53.572;10.170;2022-11-24T06:27:41;9.32;;;3.67;;
50605;SDS011;36557;53.572;10.170;2022-11-24T06:30:07;8.82;;;3.63;;
50605;SDS011;36557;53.572;10.170;2022-11-24T06:32:33;12.35;;;4.53;;
50605;SDS011;36557;53.572;10.170;2022-11-24T06:34:59;9.00;;;4.45;;
50605;SDS011;36557;53.572;10.170;2022-11-24T06:37:24;9.38;;;3.67;;
50605;SDS011;36557;53.572;10.170;2022-11-24T06:39:50;8.13;;;3.30;;
50605;SDS011;36557;53.572;10.170;2022-11-24T06:42:16;10.60;;;3.50;;
50605;SDS011;36557;53.572;10.170;2022-11-24T06:44:45;7.60;;;3.22;;
50605;SDS011;36557;53.572;10.170;2022-11-24T06:47:13;10.43;;;3.00;;
50605;SDS011;36557;53.572;10.170;2022-11-24T06:49:39;7.50;;;3.20;;
50605;SDS011;36557;53.572;10.170;2022-11-24T06:52:05;12.50;;;4.97;;
50605;SDS011;36557;53.572;10.170;2022-11-24T06:54:31;14.93;;;3.47;;
50605;SDS011;36557;53.572;10.170;2022-11-24T06:56:57;10.45;;;3.38;;
50605;SDS011;36557;53.572;10.170;2022-11-24T06:59:23;9.93;;;3.58;;
50605;SDS011;36557;53.572;10.170;2022-11-24T07:01:50;12.02;;;3.35;;
50605;SDS011;36557;53.572;10.170;2022-11-24T07:04:17;11.45;;;3.40;;
50605;SDS011;36557;53.572;10.170;2022-11-24T07:06:43;8.25;;;3.15;;
50605;SDS011;36557;53.572;10.170;2022-11-24T07:09:09;10.20;;;3.03;;
50605;SDS011;36557;53.572;10.170;2022-11-24T07:11:36;7.03;;;3.53;;
50605;SDS011;36557;53.572;10.170;2022-11-24T07:14:02;13.27;;;3.88;;
50605;SDS011;36557;53.572;10.170;2022-11-24T07:16:28;7.45;;;2.95;;
50605;SDS011;36557;53.572;10.170;2022-11-24T07:18:55;8.23;;;3.42;;
50605;SDS011;36557;53.572;10.170;2022-11-24T07:21:22;8.65;;;3.45;;
50605;SDS011;36557;53.572;10.170;2022-11-24T07:23:52;10.40;;;3.22;;
50605;SDS011;36557;53.572;10.170;2022-11-24T07:26:19;13.05;;;3.83;;
50605;SDS011;36557;53.572;10.170;2022-11-24T07:28:46;10.23;;;3.35;;
50605;SDS011;36557;53.572;10.170;2022-11-24T07:31:15;10.07;;;3.25;;
50605;SDS011;36557;53.572;10.170;2022-11-24T07:33:48;13.98;;;3.40;;
50605;SDS011;36557;53.572;10.170;2022-11-24T07:36:16;11.40;;;3.45;;
50605;SDS011;36557;53.572;10.170;2022-11-24T07:38:42;10.82;;;3.40;;
50605;SDS011;36557;53.572;10.170;2022-11-24T07:41:09;11.35;;;3.08;;
50605;SDS011;36557;53.572;10.170;2022-11-24T07:43:36;12.75;;;3.80;;
50605;SDS011;36557;53.572;10.170;2022-11-24T07:46:03;11.07;;;3.50;;
50605;SDS011;36557;53.572;10.170;2022-11-24T07:48:30;11.48;;;4.40;;
50605;SDS011;36557;53.572;10.170;2022-11-24T07:50:59;10.57;;;4.75;;
50605;SDS011;36557;53.572;10.170;2022-11-24T07:53:26;12.88;;;5.00;;
50605;SDS011;36557;53.572;10.170;2022-11-24T07:55:53;10.02;;;4.28;;
50605;SDS011;36557;53.572;10.170;2022-11-24T07:58:19;14.88;;;4.70;;
50605;SDS011;36557;53.572;10.170;2022-11-24T08:00:46;10.93;;;3.67;;
50605;SDS011;36557;53.572;10.170;2022-11-24T08:03:12;10.48;;;3.80;;
50605;SDS011;36557;53.572;10.170;2022-11-24T08:05:37;10.43;;;4.38;;
50605;SDS011;36557;53.572;10.170;2022-11-24T08:08:03;10.77;;;3.60;;
50605;SDS011;36557;53.572;10.170;2022-11-24T08:10:29;11.32;;;3.55;;
50605;SDS011;36557;53.572;10.170;2022-11-24T08:12:58;11.15;;;4.45;;
50605;SDS011;36557;53.572;10.170;2022-11-24T08:15:24;10.27;;;4.20;;
50605;SDS011;36557;53.572;10.170;2022-11-24T08:17:50;10.63;;;4.97;;
50605;SDS011;36557;53.572;10.170;2022-11-24T08:20:16;11.32;;;4.20;;
50605;SDS011;36557;53.572;10.170;2022-11-24T08:22:42;10.80;;;3.47;;
50605;SDS011;36557;53.572;10.170;2022-11-24T08:25:08;12.65;;;3.78;;
50605;SDS011;36557;53.572;10.170;2022-11-24T08:27:35;9.52;;;3.88;;
50605;SDS011;36557;53.572;10.170;2022-11-24T08:30:00;15.13;;;3.97;;
50605;SDS011;36557;53.572;10.170;2022-11-24T08:32:26;10.32;;;4.47;;
50605;SDS011;36557;53.572;10.170;2022-11-24T08:34:52;11.20;;;4.53;;
50605;SDS011;36557;53.572;10.170;2022-11-24T08:37:17;15.05;;;3.97;;
50605;SDS011;36557;53.572;10.170;2022-11-24T08:39:43;7.40;;;3.67;;
50605;SDS011;36557;53.572;10.170;2022-11-24T08:42:09;7.55;;;3.42;;
50605;SDS011;36557;53.572;10.170;2022-11-24T08:44:35;9.15;;;3.13;;
50605;SDS011;36557;53.572;10.170;2022-11-24T08:47:01;13.93;;;4.40;;
50605;SDS011;36557;53.572;10.170;2022-11-24T08:49:26;8.93;;;3.45;;
50605;SDS011;36557;53.572;10.170;2022-11-24T08:51:52;8.85;;;4.07;;
50605;SDS011;36557;53.572;10.170;2022-11-24T08:54:20;10.57;;;3.50;;
50605;SDS011;36557;53.572;10.170;2022-11-24T08:56:47;12.55;;;3.60;;
50605;SDS011;36557;53.572;10.170;2022-11-24T08:59:13;8.68;;;3.45;;
50605;SDS011;36557;53.572;10.170;2022-11-24T09:01:39;15.55;;;3.72;;
50605;SDS011;36557;53.572;10.170;2022-11-24T09:04:05;11.57;;;3.47;;
50605;SDS011;36557;53.572;10.170;2022-11-24T09:06:31;9.77;;;3.60;;
50605;SDS011;36557;53.572;10.170;2022-11-24T09:08:57;8.88;;;3.38;;
50605;SDS011;36557;53.572;10.170;2022-11-24T09:11:23;9.52;;;3.22;;
50605;SDS011;36557;53.572;10.170;2022-11-24T09:13:51;10.95;;;3.92;;
50605;SDS011;36557;53.572;10.170;2022-11-24T09:16:19;11.52;;;3.42;;
50605;SDS011;36557;53.572;10.170;2022-11-24T09:18:56;10.35;;;3.22;;
50605;SDS011;36557;53.572;10.170;2022-11-24T09:21:29;9.15;;;3.53;;
50605;SDS011;36557;53.572;10.170;2022-11-24T09:23:56;12.90;;;3.60;;
50605;SDS011;36557;53.572;10.170;2022-11-24T09:26:23;10.20;;;3.80;;
50605;SDS011;36557;53.572;10.170;2022-11-24T09:28:51;12.90;;;3.40;;
50605;SDS011;36557;53.572;10.170;2022-11-24T09:31:19;9.23;;;3.00;;
50605;SDS011;36557;53.572;10.170;2022-11-24T09:33:46;11.43;;;3.08;;
50605;SDS011;36557;53.572;10.170;2022-11-24T09:36:12;9.05;;;3.33;;
50605;SDS011;36557;53.572;10.170;2022-11-24T09:38:38;12.63;;;3.70;;
50605;SDS011;36557;53.572;10.170;2022-11-24T09:46:50;8.55;;;3.70;;
50605;SDS011;36557;53.572;10.170;2022-11-24T09:49:29;10.88;;;3.58;;
50605;SDS011;36557;53.572;10.170;2022-11-24T09:52:01;12.25;;;3.42;;
50605;SDS011;36557;53.572;10.170;2022-11-24T09:54:32;10.80;;;3.47;;
50605;SDS011;36557;53.572;10.170;2022-11-24T09:56:59;13.60;;;3.50;;
50605;SDS011;36557;53.572;10.170;2022-11-24T09:59:28;10.63;;;3.97;;
50605;SDS011;36557;53.572;10.170;2022-11-24T10:01:54;11.05;;;3.42;;
50605;SDS011;36557;53.572;10.170;2022-11-24T10:07:06;13.38;;;3.80;;
50605;SDS011;36557;53.572;10.170;2022-11-24T10:26:00;12.35;;;3.20;;
50605;SDS011;36557;53.572;10.170;2022-11-24T10:29:14;8.32;;;3.50;;
50605;SDS011;36557;53.572;10.170;2022-11-24T10:31:34;9.32;;;2.78;;
50605;SDS011;36557;53.572;10.170;2022-11-24T10:34:16;12.05;;;3.83;;
50605;SDS011;36557;53.572;10.170;2022-11-24T10:42:36;8.52;;;2.97;;
50605;SDS011;36557;53.572;10.170;2022-11-24T10:45:12;11.25;;;3.00;;
50605;SDS011;36557;53.572;10.170;2022-11-24T10:47:40;14.30;;;4.30;;
50605;SDS011;36557;53.572;10.170;2022-11-24T10:53:01;10.73;;;3.30;;
50605;SDS011;36557;53.572;10.170;2022-11-24T10:58:22;11.40;;;3.22;;
50605;SDS011;36557;53.572;10.170;2022-11-24T11:06:21;14.85;;;3.88;;
50605;SDS011;36557;53.572;10.170;2022-11-24T11:08:49;15.88;;;3.75;;
50605;SDS011;36557;53.572;10.170;2022-11-24T11:11:41;15.25;;;3.92;;
50605;SDS011;36557;53.572;10.170;2022-11-24T11:14:11;12.30;;;3.38;;
50605;SDS011;36557;53.572;10.170;2022-11-24T11:16:38;14.23;;;3.20;;
50605;SDS011;36557;53.572;10.170;2022-11-24T11:19:26;13.63;;;3.15;;
50605;SDS011;36557;53.572;10.170;2022-11-24T11:22:25;13.43;;;3.40;;
50605;SDS011;36557;53.572;10.170;2022-11-24T11:27:35;11.85;;;3.25;;
50605;SDS011;36557;53.572;10.170;2022-11-24T11:32:49;12.98;;;3.28;;
50605;SDS011;36557;53.572;10.170;2022-11-24T11:35:20;17.55;;;3.38;;
50605;SDS011;36557;53.572;10.170;2022-11-24T11:37:48;15.75;;;3.63;;
50605;SDS011;36557;53.572;10.170;2022-11-24T11:40:16;19.48;;;3.90;;
50605;SDS011;36557;53.572;10.170;2022-11-24T11:42:44;13.38;;;2.88;;
50605;SDS011;36557;53.572;10.170;2022-11-24T11:45:15;12.15;;;3.67;;
50605;SDS011;36557;53.572;10.170;2022-11-24T11:47:47;15.68;;;3.53;;
50605;SDS011;36557;53.572;10.170;2022-11-24T11:50:23;14.50;;;3.63;;
50605;SDS011;36557;53.572;10.170;2022-11-24T11:53:16;12.10;;;3.72;;
50605;SDS011;36557;53.572;10.170;2022-11-24T12:01:25;14.57;;;4.10;;
50605;SDS011;36557;53.572;10.170;2022-11-24T12:04:19;14.48;;;4.43;;
50605;SDS011;36557;53.572;10.170;2022-11-24T12:09:58;15.65;;;4.28;;
50605;SDS011;36557;53.572;10.170;2022-11-24T12:21:15;20.08;;;4.47;;
50605;SDS011;36557;53.572;10.170;2022-11-24T12:23:51;13.38;;;3.83;;
50605;SDS011;36557;53.572;10.170;2022-11-24T12:26:50;15.30;;;3.45;;
50605;SDS011;36557;53.572;10.170;2022-11-24T12:34:50;14.05;;;3.70;;
50605;SDS011;36557;53.572;10.170;2022-11-24T12:43:04;10.55;;;3.42;;
50605;SDS011;36557;53.572;10.170;2022-11-24T12:51:02;14.40;;;4.63;;
50605;SDS011;36557;53.572;10.170;2022-11-24T12:53:33;17.10;;;4.22;;
50605;SDS011;36557;53.572;10.170;2022-11-24T12:56:05;12.38;;;4.68;;
50605;SDS011;36557;53.572;10.170;2022-11-24T13:01:34;17.30;;;4.97;;
50605;SDS011;36557;53.572;10.170;2022-11-24T13:06:53;18.33;;;4.90;;
50605;SDS011;36557;53.572;10.170;2022-11-24T13:09:28;15.18;;;3.53;;
50605;SDS011;36557;53.572;10.170;2022-11-24T13:11:54;16.00;;;4.15;;
50605;SDS011;36557;53.572;10.170;2022-11-24T13:14:34;14.57;;;3.53;;
50605;SDS011;36557;53.572;10.170;2022-11-24T13:19:51;14.82;;;4.10;;
50605;SDS011;36557;53.572;10.170;2022-11-24T13:22:23;17.17;;;3.60;;
50605;SDS011;36557;53.572;10.170;2022-11-24T13:25:02;18.17;;;3.72;;
50605;SDS011;36557;53.572;10.170;2022-11-24T13:27:46;13.93;;;3.17;;
50605;SDS011;36557;53.572;10.170;2022-11-24T13:35:35;17.90;;;3.65;;
50605;SDS011;36557;53.572;10.170;2022-11-24T13:38:02;14.35;;;4.63;;
50605;SDS011;36557;53.572;10.170;2022-11-24T13:40:47;16.88;;;3.33;;
50605;SDS011;36557;53.572;10.170;2022-11-24T13:58:37;13.32;;;3.30;;
50605;SDS011;36557;53.572;10.170;2022-11-24T14:01:06;19.40;;;4.03;;
50605;SDS011;36557;53.572;10.170;2022-11-24T14:06:32;14.10;;;3.47;;
50605;SDS011;36557;53.572;10.170;2022-11-24T14:14:23;13.50;;;3.85;;
50605;SDS011;36557;53.572;10.170;2022-11-24T14:17:04;12.50;;;3.58;;
50605;SDS011;36557;53.572;10.170;2022-11-24T14:19:52;24.63;;;4.50;;
50605;SDS011;36557;53.572;10.170;2022-11-24T14:22:23;51.83;;;6.45;;
50605;SDS011;36557;53.572;10.170;2022-11-24T14:24:58;12.95;;;4.07;;
50605;SDS011;36557;53.572;10.170;2022-11-24T14:27:35;15.88;;;4.00;;
50605;SDS011;36557;53.572;10.170;2022-11-24T14:30:04;14.68;;;3.83;;
50605;SDS011;36557;53.572;10.170;2022-11-24T14:32:53;17.20;;;4.50;;
50605;SDS011;36557;53.572;10.170;2022-11-24T14:35:29;15.82;;;4.40;;
50605;SDS011;36557;53.572;10.170;2022-11-24T14:38:02;14.63;;;4.00;;
50605;SDS011;36557;53.572;10.170;2022-11-24T14:40:49;18.70;;;4.65;;
50605;SDS011;36557;53.572;10.170;2022-11-24T14:43:18;17.75;;;5.07;;
50605;SDS011;36557;53.572;10.170;2022-11-24T14:46:08;13.27;;;3.90;;
50605;SDS011;36557;53.572;10.170;2022-11-24T14:48:45;15.35;;;3.60;;
50605;SDS011;36557;53.572;10.170;2022-11-24T14:53:49;10.75;;;3.20;;
50605;SDS011;36557;53.572;10.170;2022-11-24T14:56:25;14.77;;;3.45;;
50605;SDS011;36557;53.572;10.170;2022-11-24T15:06:35;14.82;;;4.45;;
50605;SDS011;36557;53.572;10.170;2022-11-24T15:09:01;20.40;;;5.25;;
50605;SDS011;36557;53.572;10.170;2022-11-24T15:11:30;29.30;;;8.93;;
50605;SDS011;36557;53.572;10.170;2022-11-24T15:13:57;20.15;;;6.93;;
50605;SDS011;36557;53.572;10.170;2022-11-24T15:16:23;31.60;;;11.25;;
50605;SDS011;36557;53.572;10.170;2022-11-24T15:18:58;21.00;;;8.18;;
50605;SDS011;36557;53.572;10.170;2022-11-24T15:21:29;23.67;;;7.70;;
50605;SDS011;36557;53.572;10.170;2022-11-24T15:24:12;18.05;;;6.40;;
50605;SDS011;36557;53.572;10.170;2022-11-24T15:26:43;19.92;;;6.40;;
50605;SDS011;36557;53.572;10.170;2022-11-24T15:29:09;20.20;;;6.03;;
50605;SDS011;36557;53.572;10.170;2022-11-24T15:31:36;15.52;;;4.90;;
50605;SDS011;36557;53.572;10.170;2022-11-24T15:34:03;14.95;;;4.15;;
50605;SDS011;36557;53.572;10.170;2022-11-24T15:36:28;14.43;;;4.32;;
50605;SDS011;36557;53.572;10.170;2022-11-24T15:38:54;18.27;;;4.38;;
50605;SDS011;36557;53.572;10.170;2022-11-24T15:41:21;12.80;;;3.78;;
50605;SDS011;36557;53.572;10.170;2022-11-24T15:43:51;15.23;;;3.80;;
50605;SDS011;36557;53.572;10.170;2022-11-24T15:46:22;14.75;;;4.35;;
50605;SDS011;36557;53.572;10.170;2022-11-24T15:48:52;11.45;;;5.13;;
50605;SDS011;36557;53.572;10.170;2022-11-24T15:51:18;14.30;;;4.68;;
50605;SDS011;36557;53.572;10.170;2022-11-24T15:53:44;18.13;;;7.05;;
50605;SDS011;36557;53.572;10.170;2022-11-24T15:56:17;16.77;;;5.28;;
50605;SDS011;36557;53.572;10.170;2022-11-24T15:58:49;13.52;;;4.22;;
50605;SDS011;36557;53.572;10.170;2022-11-24T16:01:15;13.55;;;4.78;;
50605;SDS011;36557;53.572;10.170;2022-11-24T16:03:41;15.30;;;4.82;;
50605;SDS011;36557;53.572;10.170;2022-11-24T16:06:13;10.73;;;3.80;;
50605;SDS011;36557;53.572;10.170;2022-11-24T16:08:41;11.98;;;3.95;;
50605;SDS011;36557;53.572;10.170;2022-11-24T16:11:07;16.38;;;5.10;;
50605;SDS011;36557;53.572;10.170;2022-11-24T16:13:32;16.48;;;4.15;;
50605;SDS011;36557;53.572;10.170;2022-11-24T16:15:58;14.10;;;5.45;;
50605;SDS011;36557;53.572;10.170;2022-11-24T16:18:24;14.48;;;5.50;;
50605;SDS011;36557;53.572;10.170;2022-11-24T16:20:49;19.58;;;6.10;;
50605;SDS011;36557;53.572;10.170;2022-11-24T16:23:15;14.77;;;5.38;;
50605;SDS011;36557;53.572;10.170;2022-11-24T16:25:41;12.82;;;6.05;;
50605;SDS011;36557;53.572;10.170;2022-11-24T16:28:06;33.50;;;12.15;;
50605;SDS011;36557;53.572;10.170;2022-11-24T16:30:32;25.25;;;10.63;;
50605;SDS011;36557;53.572;10.170;2022-11-24T16:32:58;18.77;;;8.77;;
50605;SDS011;36557;53.572;10.170;2022-11-24T16:35:26;23.75;;;9.05;;
50605;SDS011;36557;53.572;10.170;2022-11-24T16:37:52;22.15;;;8.95;;
50605;SDS011;36557;53.572;10.170;2022-11-24T16:40:18;16.15;;;7.70;;
50605;SDS011;36557;53.572;10.170;2022-11-24T16:42:43;25.75;;;9.52;;
50605;SDS011;36557;53.572;10.170;2022-11-24T16:45:10;25.45;;;9.38;;
50605;SDS011;36557;53.572;10.170;2022-11-24T16:47:40;20.27;;;7.80;;
50605;SDS011;36557;53.572;10.170;2022-11-24T16:50:07;16.67;;;7.25;;
50605;SDS011;36557;53.572;10.170;2022-11-24T16:52:34;23.35;;;8.88;;
50605;SDS011;36557;53.572;10.170;2022-11-24T16:55:00;21.42;;;8.20;;
50605;SDS011;36557;53.572;10.170;2022-11-24T16:57:26;17.10;;;7.85;;